Time;durP1;ratioP1;P1;durP2;ratioP2;P2;SDS_P1;SDS_P2;PMS_P1;PMS_P2;Temp;Humidity;BMP_temperature;BMP_pressure;BME280_temperature;BME280_humidity;BME280_pressure;Samples;Min_cycle;Max_cycle;Signal;HPM_P1;HPM_P2
2023/01/05 00:01:25;;;;;;;2.55;1.52;;;;;;;5.46;100.00;100198.75;5149834;27;20400;-83
2023/01/05 00:03:51;;;;;;;2.72;1.17;;;;;;;5.70;100.00;100220.66;5146185;27;20046;-84
2023/01/05 00:06:18;;;;;;;4.30;1.25;;;;;;;5.99;100.00;100275.41;5126575;27;20054;-84
2023/01/05 00:08:45;;;;;;;5.97;1.10;;;;;;;5.72;100.00;100244.00;5146640;27;20472;-84
2023/01/05 00:22:29;;;;;;;1.42;0.90;;;;;;;5.62;100.00;100276.28;5148262;27;20047;-84
2023/01/05 00:25:00;;;;;;;2.40;1.10;;;;;;;6.07;100.00;100341.00;5141860;27;20043;-84
2023/01/05 00:27:35;;;;;;;2.13;1.10;;;;;;;5.46;100.00;100266.25;5126602;27;20073;-84
2023/01/05 00:30:02;;;;;;;6.88;1.27;;;;;;;5.28;100.00;100236.41;5128489;27;20046;-84
2023/01/05 00:32:29;;;;;;;2.20;1.15;;;;;;;5.63;100.00;100302.22;5144437;27;20054;-84
2023/01/05 00:34:57;;;;;;;2.45;1.20;;;;;;;5.41;100.00;100290.63;5123761;27;20055;-83
2023/01/05 00:37:26;;;;;;;3.90;1.42;;;;;;;5.31;100.00;100277.88;5126829;27;20062;-84
2023/01/05 00:39:53;;;;;;;2.53;1.20;;;;;;;5.20;100.00;100276.41;5130854;27;20047;-84
2023/01/05 00:42:20;;;;;;;2.88;1.10;;;;;;;5.32;100.00;100313.31;5148288;27;20050;-84
2023/01/05 00:44:46;;;;;;;1.80;0.90;;;;;;;5.16;100.00;100298.13;5131275;27;20062;-84
2023/01/05 00:47:14;;;;;;;2.33;1.00;;;;;;;5.48;100.00;100363.16;5126612;27;20046;-84
2023/01/05 00:49:41;;;;;;;3.53;1.13;;;;;;;5.10;100.00;100312.97;5132089;27;20046;-84
2023/01/05 00:52:08;;;;;;;2.63;1.10;;;;;;;5.19;100.00;100337.84;5131601;27;20057;-84
2023/01/05 00:54:35;;;;;;;1.55;1.00;;;;;;;4.74;100.00;100279.09;5127423;27;20043;-84
2023/01/05 00:57:02;;;;;;;5.15;1.95;;;;;;;4.88;100.00;100307.34;5126994;27;20130;-84
2023/01/05 00:59:28;;;;;;;3.17;1.20;;;;;;;5.14;100.00;100350.91;5145390;27;20047;-84
2023/01/05 01:01:55;;;;;;;2.95;1.00;;;;;;;5.13;100.00;100353.53;5150830;27;20047;-84
2023/01/05 01:04:22;;;;;;;3.55;1.08;;;;;;;4.82;100.00;100306.66;5136055;27;20441;-84
2023/01/05 01:06:49;;;;;;;3.17;2.03;;;;;;;4.72;100.00;100319.78;5133103;27;20472;-84
2023/01/05 01:09:16;;;;;;;1.95;1.00;;;;;;;5.21;100.00;100387.16;5153051;27;20062;-84
2023/01/05 01:11:43;;;;;;;2.95;1.17;;;;;;;4.75;100.00;100316.28;5134067;27;20046;-84
2023/01/05 01:14:11;;;;;;;7.45;2.47;;;;;;;4.89;100.00;100381.72;5152968;27;20050;-84
2023/01/05 01:16:42;;;;;;;2.75;1.00;;;;;;;4.42;100.00;100305.69;5153574;27;20043;-84
2023/01/05 01:19:14;;;;;;;2.17;1.10;;;;;;;4.81;100.00;100385.34;5135597;27;20507;-84
2023/01/05 01:21:41;;;;;;;4.70;1.33;;;;;;;4.64;100.00;100375.28;5134482;27;20047;-84
2023/01/05 01:24:13;;;;;;;3.97;1.10;;;;;;;5.05;100.00;100413.41;5151920;27;20042;-84
2023/01/05 01:26:40;;;;;;;1.52;1.08;;;;;;;4.53;100.00;100355.63;5125364;27;20055;-84
2023/01/05 01:29:07;;;;;;;3.13;1.13;;;;;;;4.73;100.00;100383.75;5131149;27;20050;-83
2023/01/05 01:31:34;;;;;;;2.70;1.15;;;;;;;4.72;100.00;100384.63;5130774;27;20156;-84
2023/01/05 01:34:01;;;;;;;4.55;1.23;;;;;;;4.68;100.00;100403.72;5146593;27;20054;-84
2023/01/05 01:36:27;;;;;;;3.45;1.20;;;;;;;4.48;100.00;100370.41;5140021;27;20051;-83
2023/01/05 01:38:54;;;;;;;3.60;1.10;;;;;;;4.30;100.00;100373.31;5152911;27;20042;-84
2023/01/05 01:41:21;;;;;;;2.50;1.05;;;;;;;4.32;100.00;100397.44;5133355;27;20066;-83
2023/01/05 01:43:50;;;;;;;2.95;1.20;;;;;;;4.13;100.00;100374.47;5152983;27;20404;-83
2023/01/05 01:46:19;;;;;;;1.60;1.00;;;;;;;4.30;100.00;100432.91;5146080;27;20051;-83
2023/01/05 01:48:55;;;;;;;5.20;1.30;;;;;;;3.90;100.00;100380.00;5135098;27;20658;-83
2023/01/05 01:51:40;;;;;;;2.00;1.10;;;;;;;4.03;100.00;100405.72;5152172;27;20053;-84
2023/01/05 01:54:11;;;;;;;3.80;1.30;;;;;;;3.97;100.00;100379.03;5142469;27;20125;-84
2023/01/05 01:56:42;;;;;;;2.60;1.30;;;;;;;4.51;100.00;100418.72;5151756;27;20110;-83
2023/01/05 01:59:10;;;;;;;2.47;1.10;;;;;;;4.34;100.00;100395.72;5135291;27;20047;-83
2023/01/05 02:01:37;;;;;;;3.15;1.38;;;;;;;4.40;100.00;100444.00;5134555;27;20050;-85
2023/01/05 02:04:05;;;;;;;2.63;1.05;;;;;;;3.79;100.00;100374.16;5135334;27;20047;-83
2023/01/05 02:06:32;;;;;;;3.30;1.25;;;;;;;4.01;100.00;100408.34;5134506;27;20461;-83
2023/01/05 02:08:59;;;;;;;2.67;1.10;;;;;;;4.82;100.00;100449.31;5124696;27;20050;-84
2023/01/05 02:12:07;;;;;;;6.10;1.33;;;;;;;5.12;100.00;100446.13;5134079;27;20432;-83
2023/01/05 02:14:43;;;;;;;2.95;2.00;;;;;;;5.51;100.00;100466.97;5134457;27;20054;-84
2023/01/05 02:17:21;;;;;;;5.75;1.30;;;;;;;5.53;100.00;100479.09;5146762;27;20065;-83
2023/01/05 02:20:25;;;;;;;2.38;1.20;;;;;;;5.28;100.00;100475.22;5130898;27;20051;-83
2023/01/05 02:24:05;;;;;;;3.10;1.20;;;;;;;5.27;100.00;100465.72;5142348;27;20475;-84
2023/01/05 02:26:51;;;;;;;3.28;1.20;;;;;;;5.05;100.00;100434.16;4972679;28;20050;-83
2023/01/05 02:29:40;;;;;;;2.60;1.20;;;;;;;5.55;100.00;100480.75;5012673;28;20049;-84
2023/01/05 02:32:22;;;;;;;4.47;1.45;;;;;;;5.30;100.00;100429.31;5104157;27;20499;-83
2023/01/05 02:35:20;;;;;;;4.43;1.55;;;;;;;5.43;100.00;100437.69;5134008;27;20053;-83
2023/01/05 02:38:11;;;;;;;2.88;1.30;;;;;;;5.37;100.00;100432.66;5118801;27;20039;-83
2023/01/05 02:40:50;;;;;;;2.70;1.20;;;;;;;4.89;100.00;100446.56;5120807;27;20046;-84
2023/01/05 02:43:21;;;;;;;5.07;1.20;;;;;;;4.79;100.00;100415.66;5119965;27;20038;-83
2023/01/05 02:45:48;;;;;;;5.03;1.23;;;;;;;4.87;100.00;100442.28;5134071;27;20058;-83
2023/01/05 02:48:15;;;;;;;5.93;1.33;;;;;;;4.97;100.00;100436.03;5152794;27;20126;-83
2023/01/05 02:50:51;;;;;;;3.33;1.10;;;;;;;5.19;100.00;100479.75;5134223;27;20050;-82
2023/01/05 02:53:32;;;;;;;4.68;1.30;;;;;;;5.02;100.00;100433.38;5133819;27;20047;-82
2023/01/05 02:56:08;;;;;;;4.55;1.17;;;;;;;5.10;100.00;100441.88;5134060;27;20078;-82
2023/01/05 02:58:58;;;;;;;2.58;1.20;;;;;;;5.63;100.00;100452.88;5152775;27;20043;-83
2023/01/05 03:01:36;;;;;;;3.13;1.50;;;;;;;5.67;100.00;100454.50;5156042;27;20043;-82
2023/01/05 03:04:15;;;;;;;3.97;1.30;;;;;;;5.59;100.00;100477.19;5138409;27;20494;-83
2023/01/05 03:06:55;;;;;;;3.13;1.10;;;;;;;5.27;100.00;100415.56;5134859;27;20043;-82
2023/01/05 03:09:26;;;;;;;8.63;2.95;;;;;;;5.58;100.00;100443.44;5134757;27;20047;-83
2023/01/05 03:14:54;;;;;;;2.17;1.20;;;;;;;5.80;100.00;100480.22;5156078;27;20073;-83
2023/01/05 03:17:28;;;;;;;4.93;1.20;;;;;;;5.37;100.00;100488.94;5138115;27;20054;-82
2023/01/05 03:19:57;;;;;;;5.78;1.42;;;;;;;5.02;100.00;100448.94;5156397;27;20046;-83
2023/01/05 03:37:20;;;;;;;2.90;1.40;;;;;;;4.82;100.00;100449.31;5145598;27;20055;-83
2023/01/05 03:39:47;;;;;;;3.35;1.15;;;;;;;4.71;100.00;100452.97;5131813;27;20058;-83
2023/01/05 03:42:15;;;;;;;3.78;1.23;;;;;;;4.60;100.00;100480.81;5134030;27;20491;-82
2023/01/05 03:44:47;;;;;;;2.65;1.15;;;;;;;4.31;100.00;100453.63;5137404;27;20062;-82
2023/01/05 03:47:14;;;;;;;3.03;1.33;;;;;;;4.46;100.00;100460.31;5136706;27;20069;-82
2023/01/05 03:49:41;;;;;;;1.35;0.93;;;;;;;4.48;100.00;100468.03;5122430;27;20506;-82
2023/01/05 03:52:08;;;;;;;4.82;1.23;;;;;;;4.62;100.00;100486.84;5136648;27;20487;-82
2023/01/05 03:54:35;;;;;;;2.95;1.02;;;;;;;4.03;100.00;100401.38;5154406;27;20050;-84
2023/01/05 03:57:01;;;;;;;2.65;1.20;;;;;;;4.21;100.00;100435.66;5137529;27;20050;-82
2023/01/05 03:59:28;;;;;;;1.88;1.10;;;;;;;4.00;100.00;100409.22;5137701;27;20402;-82
2023/01/05 04:01:55;;;;;;;1.25;1.08;;;;;;;4.26;100.00;100449.41;5156040;27;20049;-82
2023/01/05 04:04:22;;;;;;;1.30;1.05;;;;;;;3.97;100.00;100412.72;5137723;27;20154;-82
2023/01/05 04:06:48;;;;;;;2.92;1.20;;;;;;;4.09;100.00;100435.00;5155607;27;20472;-82
2023/01/05 04:09:15;;;;;;;3.45;1.27;;;;;;;4.05;100.00;100425.53;5154684;27;20050;-82
2023/01/05 04:11:42;;;;;;;4.38;1.20;;;;;;;3.94;100.00;100428.28;5125741;27;20039;-82
2023/01/05 04:14:08;;;;;;;2.97;1.25;;;;;;;3.89;100.00;100439.63;5117140;27;20054;-82
2023/01/05 04:16:35;;;;;;;2.33;1.08;;;;;;;3.45;100.00;100378.97;5126469;27;20095;-82
2023/01/05 04:19:02;;;;;;;2.45;1.10;;;;;;;3.44;100.00;100424.72;5136535;27;20047;-83
2023/01/05 04:21:29;;;;;;;3.42;1.27;;;;;;;3.52;100.00;100443.56;5133100;27;20042;-83
2023/01/05 04:23:55;;;;;;;2.80;1.20;;;;;;;3.54;100.00;100438.38;5140622;27;20053;-84
2023/01/05 04:26:22;;;;;;;1.50;1.00;;;;;;;3.44;100.00;100422.13;5136503;27;20051;-84
2023/01/05 04:28:49;;;;;;;2.45;1.20;;;;;;;3.33;100.00;100421.38;5118612;27;20104;-83
2023/01/05 04:31:16;;;;;;;2.40;1.35;;;;;;;3.51;100.00;100457.41;5125429;27;20398;-82
2023/01/05 04:33:44;;;;;;;4.82;1.30;;;;;;;3.17;100.00;100429.34;5122090;27;20103;-83
2023/01/05 04:36:11;;;;;;;3.90;1.20;;;;;;;2.94;100.00;100387.38;5137206;27;20055;-82
2023/01/05 04:38:37;;;;;;;2.15;1.23;;;;;;;3.15;100.00;100444.03;5140087;27;20058;-82
2023/01/05 04:41:04;;;;;;;1.85;1.02;;;;;;;2.86;100.00;100418.50;5135649;27;20046;-82
2023/01/05 04:43:31;;;;;;;3.15;1.20;;;;;;;2.85;100.00;100442.63;5155277;27;20053;-82
2023/01/05 04:45:58;;;;;;;2.50;1.10;;;;;;;2.88;100.00;100459.84;5133411;27;20440;-82
2023/01/05 04:48:24;;;;;;;1.95;1.10;;;;;;;2.56;100.00;100424.84;5145299;27;20042;-82
2023/01/05 04:50:55;;;;;;;2.20;0.98;;;;;;;2.64;100.00;100448.91;5154403;27;20050;-82
2023/01/05 04:53:22;;;;;;;2.28;1.08;;;;;;;2.77;100.00;100480.66;5136832;27;20049;-84
2023/01/05 04:55:51;;;;;;;5.68;1.35;;;;;;;2.69;100.00;100487.63;5136234;27;20106;-85
2023/01/05 04:58:19;;;;;;;3.15;1.35;;;;;;;2.50;100.00;100476.56;5136202;27;20046;-85
2023/01/05 05:00:47;;;;;;;2.28;1.20;;;;;;;2.79;100.00;100515.09;5126361;27;20057;-82
2023/01/05 05:03:14;;;;;;;3.45;1.15;;;;;;;2.33;100.00;100444.00;5155220;27;20047;-82
2023/01/05 05:05:41;;;;;;;2.78;1.30;;;;;;;2.58;100.00;100470.47;5154898;27;20122;-83
2023/01/05 05:08:07;;;;;;;4.35;1.27;;;;;;;2.60;100.00;100483.38;5130267;27;20039;-84
2023/01/05 05:10:34;;;;;;;2.53;1.10;;;;;;;2.24;100.00;100424.25;5136059;27;20047;-84
2023/01/05 05:13:01;;;;;;;2.88;1.25;;;;;;;2.71;100.00;100525.53;5154715;27;20047;-84
2023/01/05 05:15:28;;;;;;;2.53;1.13;;;;;;;2.25;100.00;100456.97;5136305;27;20065;-84
2023/01/05 05:17:54;;;;;;;3.90;1.23;;;;;;;2.35;100.00;100459.47;5151815;27;20079;-82
2023/01/05 05:20:21;;;;;;;1.65;1.10;;;;;;;2.62;100.00;100508.38;5134869;27;20054;-84
2023/01/05 05:22:48;;;;;;;2.47;1.30;;;;;;;2.32;100.00;100462.97;5154584;27;20050;-85
2023/01/05 05:25:14;;;;;;;2.10;1.08;;;;;;;2.74;100.00;100522.03;5154403;27;20055;-84
2023/01/05 05:27:41;;;;;;;2.40;1.10;;;;;;;2.21;100.00;100444.09;5154862;27;20151;-85
2023/01/05 05:30:08;;;;;;;2.35;1.30;;;;;;;2.34;100.00;100484.47;5136497;27;20039;-82
2023/01/05 05:32:35;;;;;;;2.25;1.27;;;;;;;1.96;100.00;100426.19;5131322;27;20484;-84
2023/01/05 05:35:09;;;;;;;2.08;1.20;;;;;;;2.04;100.00;100455.41;5132590;27;20055;-84
2023/01/05 05:37:36;;;;;;;1.70;1.13;;;;;;;2.13;100.00;100461.38;5136032;27;20047;-85
2023/01/05 05:40:03;;;;;;;2.70;1.20;;;;;;;2.04;100.00;100455.41;5126875;27;20051;-84
2023/01/05 05:42:30;;;;;;;3.05;1.20;;;;;;;1.81;100.00;100432.34;5135128;27;20095;-85
2023/01/05 05:44:57;;;;;;;2.42;1.27;;;;;;;2.19;100.00;100471.66;5122125;27;20404;-84
2023/01/05 05:47:24;;;;;;;2.13;1.20;;;;;;;1.93;100.00;100431.41;5120277;27;20043;-84
2023/01/05 05:49:50;;;;;;;2.72;1.30;;;;;;;2.14;100.00;100448.44;5136234;27;20082;-84
2023/01/05 05:52:17;;;;;;;6.10;1.70;;;;;;;2.08;100.00;100467.44;5135163;27;20035;-84
2023/01/05 05:54:44;;;;;;;5.43;1.38;;;;;;;2.07;100.00;100439.91;5125163;27;20047;-84
2023/01/05 05:57:11;;;;;;;2.92;1.27;;;;;;;2.22;100.00;100448.41;5131015;27;20099;-85
2023/01/05 05:59:37;;;;;;;3.65;1.30;;;;;;;2.42;100.00;100474.06;5133799;27;20067;-84
2023/01/05 06:02:04;;;;;;;1.35;1.10;;;;;;;2.25;100.00;100438.91;5153361;27;20045;-84
2023/01/05 06:04:31;;;;;;;2.40;1.20;;;;;;;2.47;100.00;100491.25;5129117;27;20495;-84
2023/01/05 06:06:57;;;;;;;1.80;1.10;;;;;;;2.20;100.00;100443.25;5114580;28;20051;-84
2023/01/05 06:09:24;;;;;;;2.00;1.30;;;;;;;2.40;100.00;100466.31;5129056;28;20055;-84
2023/01/05 06:11:51;;;;;;;5.35;1.80;;;;;;;2.45;100.00;100471.47;5135689;27;20050;-84
2023/01/05 06:14:18;;;;;;;2.13;1.20;;;;;;;2.17;100.00;100440.66;5120523;27;20051;-84
2023/01/05 06:16:45;;;;;;;1.80;1.25;;;;;;;2.34;100.00;100461.22;5152180;27;20047;-85
2023/01/05 06:19:12;;;;;;;1.70;1.10;;;;;;;2.66;100.00;100527.28;5135338;27;20095;-84
2023/01/05 06:21:38;;;;;;;3.15;1.20;;;;;;;2.23;100.00;100473.34;5144427;27;20073;-84
2023/01/05 06:24:05;;;;;;;1.70;1.20;;;;;;;2.25;100.00;100469.91;5143002;27;20050;-85
2023/01/05 06:26:32;;;;;;;1.50;1.20;;;;;;;2.33;100.00;100490.50;5153583;27;20605;-84
2023/01/05 06:28:59;;;;;;;1.75;1.10;;;;;;;2.46;100.00;100491.25;5132196;28;20051;-85
2023/01/05 06:31:26;;;;;;;2.85;1.40;;;;;;;2.30;100.00;100459.50;5146730;27;20049;-84
2023/01/05 06:33:52;;;;;;;2.38;1.17;;;;;;;2.49;100.00;100495.56;5125771;27;20050;-84
2023/01/05 06:36:19;;;;;;;3.15;1.25;;;;;;;2.33;100.00;100462.06;5140104;27;20047;-83
2023/01/05 06:38:46;;;;;;;1.92;1.27;;;;;;;2.51;100.00;100489.47;5153332;27;20069;-85
2023/01/05 06:41:13;;;;;;;2.92;1.30;;;;;;;2.49;100.00;100477.47;5154200;27;20049;-85
2023/01/05 06:43:39;;;;;;;2.25;1.30;;;;;;;2.44;100.00;100485.25;5139515;27;20043;-84
2023/01/05 06:46:06;;;;;;;5.07;1.38;;;;;;;2.53;100.00;100497.22;5130081;27;20051;-83
2023/01/05 06:48:33;;;;;;;2.95;1.75;;;;;;;2.14;100.00;100442.44;5139357;27;20480;-85
2023/01/05 06:50:59;;;;;;;4.22;1.45;;;;;;;2.68;100.00;100537.63;5138413;27;20047;-84
2023/01/05 06:53:26;;;;;;;2.38;1.10;;;;;;;2.24;100.00;100468.16;5125369;27;20062;-84
2023/01/05 06:55:53;;;;;;;1.50;1.02;;;;;;;2.16;100.00;100443.25;5150454;27;20050;-83
2023/01/05 06:58:20;;;;;;;2.08;1.20;;;;;;;2.24;100.00;100451.81;5139398;27;20472;-82
2023/01/05 07:00:46;;;;;;;2.35;1.20;;;;;;;2.38;100.00;100475.81;5135026;27;20051;-84
2023/01/05 07:03:13;;;;;;;2.15;1.10;;;;;;;2.09;100.00;100422.66;5128523;27;20388;-84
2023/01/05 07:05:41;;;;;;;1.65;1.08;;;;;;;2.65;100.00;100516.06;5122537;27;20404;-85
2023/01/05 07:08:07;;;;;;;3.15;1.17;;;;;;;2.69;100.00;100514.31;5126186;27;20065;-84
2023/01/05 07:10:34;;;;;;;1.80;1.10;;;;;;;2.17;100.00;100425.19;5137257;27;20054;-84
2023/01/05 07:13:01;;;;;;;3.47;1.20;;;;;;;2.25;100.00;100438.06;5138662;27;20232;-87
2023/01/05 07:15:28;;;;;;;2.25;1.20;;;;;;;2.20;100.00;100444.97;5158217;27;20047;-86
2023/01/05 07:17:55;;;;;;;3.63;1.30;;;;;;;2.20;100.00;100447.56;5134355;27;20054;-86
2023/01/05 07:20:21;;;;;;;1.80;1.13;;;;;;;2.39;100.00;100481.84;5137937;27;20050;-85
2023/01/05 07:22:48;;;;;;;5.30;1.63;;;;;;;1.82;100.00;100395.31;5144490;27;20043;-86
2023/01/05 07:25:15;;;;;;;3.83;1.15;;;;;;;2.50;100.00;100492.97;5140424;27;20057;-86
2023/01/05 07:27:42;;;;;;;1.67;1.10;;;;;;;2.54;100.00;100517.06;5139767;27;20058;-87
2023/01/05 07:30:09;;;;;;;1.65;1.00;;;;;;;2.33;100.00;100474.16;5143173;27;20051;-87
2023/01/05 07:32:36;;;;;;;2.13;1.10;;;;;;;2.05;100.00;100436.47;5137948;27;20050;-88
2023/01/05 07:35:03;;;;;;;2.40;1.20;;;;;;;2.01;100.00;100421.84;5137504;27;20050;-87
2023/01/05 07:37:30;;;;;;;2.22;1.25;;;;;;;2.19;100.00;100453.59;5118886;27;20127;-88
2023/01/05 07:39:57;;;;;;;3.53;1.40;;;;;;;2.31;100.00;100493.97;5137115;27;20423;-88
2023/01/05 07:42:24;;;;;;;1.75;1.20;;;;;;;2.18;100.00;100468.22;5137150;27;20103;-87
2023/01/05 07:44:51;;;;;;;2.50;1.30;;;;;;;2.20;100.00;100468.22;5138223;27;20059;-87
2023/01/05 07:47:18;;;;;;;1.95;1.30;;;;;;;2.15;100.00;100451.91;5131597;27;20055;-87
2023/01/05 07:49:45;;;;;;;2.60;1.30;;;;;;;1.92;100.00;100439.16;5146409;27;20489;-88
2023/01/05 07:52:12;;;;;;;2.25;1.25;;;;;;;2.16;100.00;100482.00;5153852;27;20898;-87
2023/01/05 07:54:38;;;;;;;2.90;1.30;;;;;;;2.11;100.00;100476.00;5139126;27;20042;-88
2023/01/05 07:57:05;;;;;;;2.20;1.30;;;;;;;2.08;100.00;100471.75;5133329;27;20051;-88
2023/01/05 07:59:32;;;;;;;2.92;1.40;;;;;;;2.04;100.00;100468.31;5138727;27;20129;-88
2023/01/05 08:01:59;;;;;;;4.80;1.88;;;;;;;1.97;100.00;100483.88;5134654;27;20539;-87
2023/01/05 08:04:26;;;;;;;3.50;1.60;;;;;;;1.79;100.00;100475.38;5138477;27;20103;-88
2023/01/05 08:06:53;;;;;;;2.65;1.33;;;;;;;1.84;100.00;100449.50;5137906;27;20046;-87
2023/01/05 08:12:05;;;;;;;2.90;1.50;;;;;;;2.33;100.00;100506.00;5155691;27;20047;-87
2023/01/05 08:14:32;;;;;;;2.35;1.17;;;;;;;2.12;100.00;100464.81;5137970;27;20483;-86
2023/01/05 08:16:58;;;;;;;2.15;1.40;;;;;;;2.00;100.00;100439.94;5127580;27;20064;-88
2023/01/05 08:19:25;;;;;;;3.63;1.20;;;;;;;2.44;100.00;100499.03;5137785;27;20141;-84
2023/01/05 08:21:52;;;;;;;2.47;1.30;;;;;;;2.30;100.00;100453.50;5146741;27;20057;-84
2023/01/05 08:24:19;;;;;;;5.05;1.45;;;;;;;2.42;100.00;100462.00;5136006;27;20047;-86
2023/01/05 08:26:48;;;;;;;1.98;1.20;;;;;;;2.26;100.00;100439.75;5136629;27;20046;-86
2023/01/05 08:29:15;;;;;;;3.30;1.45;;;;;;;1.99;100.00;100453.72;5136384;27;20047;-87
2023/01/05 08:31:42;;;;;;;2.88;1.10;;;;;;;1.98;100.00;100470.94;5151759;27;20066;-85
2023/01/05 08:34:09;;;;;;;1.83;1.10;;;;;;;2.02;100.00;100467.47;5155171;27;20122;-86
2023/01/05 08:36:35;;;;;;;2.40;1.27;;;;;;;1.97;100.00;100463.22;5137492;27;20050;-86
2023/01/05 08:39:03;;;;;;;5.03;1.60;;;;;;;2.00;100.00;100465.75;5130434;27;20667;-86
2023/01/05 08:41:31;;;;;;;3.05;1.50;;;;;;;2.04;100.00;100493.31;5130710;27;20043;-86
2023/01/05 08:44:00;;;;;;;3.97;1.60;;;;;;;2.02;100.00;100518.25;5133206;27;20050;-85
2023/01/05 08:46:29;;;;;;;4.43;1.50;;;;;;;1.47;100.00;100435.13;5133769;27;20472;-87
2023/01/05 08:48:58;;;;;;;3.70;1.70;;;;;;;1.56;100.00;100490.09;5134678;27;20141;-86
2023/01/05 08:51:26;;;;;;;3.38;1.67;;;;;;;1.81;100.00;100522.69;5125841;27;20128;-85
2023/01/05 08:53:53;;;;;;;4.85;1.80;;;;;;;1.81;100.00;100522.69;5127212;27;20648;-86
2023/01/05 08:56:21;;;;;;;3.47;1.60;;;;;;;1.77;100.00;100505.50;5149392;27;20385;-86
2023/01/05 08:58:48;;;;;;;5.10;1.90;;;;;;;1.51;100.00;100480.66;5130846;27;20050;-87
2023/01/05 09:01:17;;;;;;;4.82;1.85;;;;;;;1.88;100.00;100523.53;5130948;27;20464;-86
2023/01/05 09:03:44;;;;;;;5.13;1.85;;;;;;;1.57;100.00;100477.19;5130672;27;20047;-86
2023/01/05 09:06:14;;;;;;;4.53;1.80;;;;;;;1.78;100.00;100517.53;5145566;27;20046;-87
2023/01/05 09:08:43;;;;;;;3.63;1.40;;;;;;;1.25;100.00;100438.66;5136645;27;20043;-86
2023/01/05 09:11:16;;;;;;;6.22;1.85;;;;;;;1.66;100.00;100507.25;5136728;27;20054;-85
2023/01/05 09:13:49;;;;;;;4.70;1.80;;;;;;;1.79;100.00;100531.28;5154884;27;20053;-84
2023/01/05 09:16:18;;;;;;;3.40;1.58;;;;;;;1.91;100.00;100533.81;5150170;27;20039;-84
2023/01/05 09:19:05;;;;;;;3.08;1.50;;;;;;;1.49;100.00;100471.22;5130642;27;20799;-85
2023/01/05 09:21:32;;;;;;;3.58;1.73;;;;;;;1.68;100.00;100492.63;5136683;27;20070;-85
2023/01/05 09:23:59;;;;;;;3.67;1.63;;;;;;;1.72;100.00;100491.75;5136129;27;20411;-85
2023/01/05 09:26:26;;;;;;;4.97;1.70;;;;;;;1.65;100.00;100465.13;5155043;27;20054;-85
2023/01/05 09:28:53;;;;;;;4.00;1.40;;;;;;;1.66;100.00;100463.38;5137229;27;20096;-86
2023/01/05 09:31:21;;;;;;;5.63;1.98;;;;;;;1.73;100.00;100477.97;5136369;27;20046;-85
2023/01/05 09:33:48;;;;;;;3.88;1.60;;;;;;;1.62;100.00;100465.13;5136797;27;20377;-85
2023/01/05 09:36:17;;;;;;;4.22;2.00;;;;;;;1.51;100.00;100438.53;5133477;27;20047;-85
2023/01/05 09:38:55;;;;;;;4.53;1.85;;;;;;;1.62;100.00;100448.78;5134977;27;20043;-85
2023/01/05 09:41:34;;;;;;;4.80;1.73;;;;;;;1.49;100.00;100419.63;5154734;27;20050;-85
2023/01/05 09:44:26;;;;;;;5.03;2.15;;;;;;;1.88;100.00;100490.81;5130973;27;20047;-85
2023/01/05 09:46:58;;;;;;;6.43;1.80;;;;;;;1.89;100.00;100481.31;5133898;27;20046;-85
2023/01/05 09:49:27;;;;;;;6.18;2.03;;;;;;;1.83;100.00;100459.00;5122902;27;20051;-85
2023/01/05 09:52:01;;;;;;;6.88;2.10;;;;;;;1.80;100.00;100469.31;5129765;27;20046;-85
2023/01/05 09:54:32;;;;;;;5.63;1.80;;;;;;;1.99;100.00;100505.38;5132104;27;20039;-85
2023/01/05 09:56:59;;;;;;;4.60;1.92;;;;;;;2.03;100.00;100502.75;5130878;27;20049;-85
2023/01/05 09:59:51;;;;;;;4.28;1.88;;;;;;;1.51;100.00;100408.41;5137663;27;20050;-85
2023/01/05 10:02:18;;;;;;;5.25;2.10;;;;;;;2.04;100.00;100495.88;5154006;27;20053;-85
2023/01/05 10:04:46;;;;;;;4.20;1.88;;;;;;;2.15;100.00;100501.81;5126663;27;20043;-85
2023/01/05 10:07:25;;;;;;;4.57;1.80;;;;;;;2.12;100.00;100493.25;5130328;27;20070;-84
2023/01/05 10:09:54;;;;;;;5.07;1.80;;;;;;;2.02;100.00;100469.19;5154987;27;20059;-85
2023/01/05 10:15:20;;;;;;;7.57;2.30;;;;;;;1.91;100.00;100407.28;5155153;27;20107;-85
2023/01/05 10:17:47;;;;;;;16.38;8.90;;;;;;;2.22;100.00;100440.66;5136607;27;20043;-85
2023/01/05 10:20:24;;;;;;;12.55;5.82;;;;;;;2.09;100.00;100442.47;5154710;27;20043;-84
2023/01/05 10:23:06;;;;;;;9.63;3.80;;;;;;;2.35;100.00;100483.59;5134796;27;20050;-85
2023/01/05 10:25:44;;;;;;;10.13;3.08;;;;;;;2.34;100.00;100471.56;5123951;27;20058;-85
2023/01/05 10:28:30;;;;;;;9.07;3.17;;;;;;;1.96;100.00;100410.69;5141641;27;20055;-85
2023/01/05 10:31:06;;;;;;;6.80;2.85;;;;;;;2.11;100.00;100424.34;5135153;27;20054;-86
2023/01/05 10:33:51;;;;;;;7.32;2.50;;;;;;;2.47;100.00;100478.31;5154003;27;20043;-86
2023/01/05 10:36:41;;;;;;;7.07;2.50;;;;;;;2.44;100.00;100469.72;5135159;27;20050;-85
2023/01/05 10:39:43;;;;;;;5.13;2.10;;;;;;;2.03;100.00;100380.53;5124114;28;20144;-85
2023/01/05 10:42:39;;;;;;;6.35;2.53;;;;;;;2.61;100.00;100454.09;5130221;27;20131;-85
2023/01/05 10:45:16;;;;;;;6.95;2.45;;;;;;;2.20;100.00;100385.56;5126699;27;20047;-84
2023/01/05 10:47:44;;;;;;;6.13;2.60;;;;;;;2.36;100.00;100394.03;5132901;27;20054;-85
2023/01/05 10:50:35;;;;;;;7.70;3.13;;;;;;;2.86;100.00;100454.69;5146883;27;20062;-84
2023/01/05 10:53:10;;;;;;;5.22;2.17;;;;;;;2.87;100.00;100429.69;5125406;27;20058;-85
2023/01/05 10:55:46;;;;;;;5.05;2.25;;;;;;;3.01;100.00;100428.69;5131874;27;20063;-85
2023/01/05 10:58:30;;;;;;;6.43;2.00;;;;;;;2.76;100.00;100349.66;5132959;27;20055;-85
2023/01/05 11:01:02;;;;;;;4.45;1.80;;;;;;;2.80;100.00;100352.19;5148174;27;20051;-85
2023/01/05 11:03:39;;;;;;;12.20;3.10;;;;;;;2.83;100.00;100371.97;5131859;27;20050;-85
2023/01/05 11:06:29;;;;;;;11.88;3.05;;;;;;;2.63;100.00;100343.78;5123185;27;20071;-85
2023/01/05 11:09:10;;;;;;;11.40;3.03;;;;;;;2.88;100.00;100379.69;5149629;27;20069;-84
2023/01/05 11:11:41;;;;;;;6.07;2.47;;;;;;;3.03;100.00;100375.19;5149898;27;20569;-85
2023/01/05 11:14:15;;;;;;;6.55;2.30;;;;;;;3.33;100.00;100416.19;5138573;27;20046;-85
2023/01/05 11:16:48;;;;;;;4.47;1.73;;;;;;;3.43;100.00;100412.63;5145526;27;20125;-85
2023/01/05 11:19:16;;;;;;;;;;;;;;;3.67;100.00;100411.44;5119836;27;20047;-84
2023/01/05 11:21:44;;;;;;;4.53;1.90;;;;;;;3.26;100.00;100343.00;5147354;27;19933;-85
2023/01/05 11:24:23;;;;;;;5.07;2.00;;;;;;;3.85;100.00;100397.34;5136947;27;20046;-85
2023/01/05 11:26:58;;;;;;;7.45;1.70;;;;;;;3.94;100.00;100393.78;5147771;27;20089;-85
2023/01/05 11:29:29;;;;;;;8.98;3.95;;;;;;;3.83;100.00;100381.00;5132749;27;20480;-83
2023/01/05 11:31:59;;;;;;;5.45;1.50;;;;;;;4.06;100.00;100397.91;5130310;27;20050;-85
2023/01/05 11:34:44;;;;;;;4.53;1.63;;;;;;;3.99;100.00;100371.25;5144563;27;20051;-85
2023/01/05 11:37:29;;;;;;;7.68;2.15;;;;;;;3.98;100.00;100354.84;5128209;27;20503;-84
2023/01/05 11:40:00;;;;;;;4.68;1.88;;;;;;;4.27;100.00;100376.81;5129518;27;20054;-83
2023/01/05 11:42:35;;;;;;;7.32;2.45;;;;;;;4.17;100.00;100347.59;5128858;27;20495;-84
2023/01/05 11:45:04;;;;;;;6.43;1.95;;;;;;;4.02;100.00;100316.78;5132397;27;20039;-85
2023/01/05 11:47:43;;;;;;;6.57;1.90;;;;;;;4.07;100.00;100289.06;5131033;27;20054;-85
2023/01/05 11:50:20;;;;;;;6.28;1.80;;;;;;;4.51;100.00;100351.31;5126569;27;20058;-85
2023/01/05 11:52:50;;;;;;;5.32;1.50;;;;;;;4.01;100.00;100278.81;5124844;27;20061;-85
2023/01/05 11:55:24;;;;;;;4.28;1.65;;;;;;;4.57;100.00;100346.03;5143505;27;20065;-85
2023/01/05 11:57:52;;;;;;;6.30;1.70;;;;;;;4.37;100.00;100295.44;5151075;27;20054;-85
2023/01/05 12:00:44;;;;;;;3.47;1.50;;;;;;;4.73;100.00;100333.63;5150725;27;20077;-85
2023/01/05 12:03:17;;;;;;;8.82;2.03;;;;;;;4.75;100.00;100330.09;5132837;27;20128;-86
2023/01/05 12:05:56;;;;;;;2.72;1.20;;;;;;;4.69;100.00;100313.81;5131878;27;20503;-85
2023/01/05 12:08:45;;;;;;;3.92;1.60;;;;;;;4.54;100.00;100279.53;5133250;27;20050;-85
2023/01/05 12:11:18;;;;;;;3.83;1.40;;;;;;;4.85;100.00;100329.91;5150152;27;20134;-85
2023/01/05 12:13:57;;;;;;;4.85;1.55;;;;;;;4.88;100.00;100322.91;5129976;27;20049;-85
2023/01/05 12:16:38;;;;;;;2.08;1.20;;;;;;;4.53;100.00;100251.03;5144270;27;20412;-85